sensor_id;sensor_type;location;lat;lon;timestamp;pressure;altitude;pressure_sealevel;temperature;humidity
68226;BME280;55045;49.410;11.030;2024-01-10T00:00:54;99016.56;;;-6.48;100.00
68226;BME280;55045;49.410;11.030;2024-01-10T00:03:57;99021.56;;;-6.49;100.00
68226;BME280;55045;49.410;11.030;2024-01-10T00:07:02;99022.50;;;-6.46;100.00
68226;BME280;55045;49.410;11.030;2024-01-10T00:10:07;99023.56;;;-6.39;100.00
68226;BME280;55045;49.410;11.030;2024-01-10T00:13:11;99000.09;;;-6.62;100.00
68226;BME280;55045;49.410;11.030;2024-01-10T00:16:14;99009.84;;;-6.47;100.00
68226;BME280;55045;49.410;11.030;2024-01-10T00:19:18;99014.38;;;-6.37;100.00
68226;BME280;55045;49.410;11.030;2024-01-10T00:22:23;99021.88;;;-6.40;100.00
68226;BME280;55045;49.410;11.030;2024-01-10T00:25:26;99009.94;;;-6.19;100.00
68226;BME280;55045;49.410;11.030;2024-01-10T00:28:29;99005.34;;;-6.03;100.00
68226;BME280;55045;49.410;11.030;2024-01-10T00:31:33;99003.69;;;-6.03;100.00
68226;BME280;55045;49.410;11.030;2024-01-10T00:34:36;99014.25;;;-6.15;100.00
68226;BME280;55045;49.410;11.030;2024-01-10T00:37:41;99002.38;;;-6.19;100.00
68226;BME280;55045;49.410;11.030;2024-01-10T00:40:47;98998.69;;;-5.73;100.00
68226;BME280;55045;49.410;11.030;2024-01-10T00:43:50;98997.91;;;-6.00;100.00
68226;BME280;55045;49.410;11.030;2024-01-10T00:46:53;99005.56;;;-5.97;100.00
68226;BME280;55045;49.410;11.030;2024-01-10T00:49:57;98994.72;;;-5.93;98.52
68226;BME280;55045;49.410;11.030;2024-01-10T00:53:02;98987.88;;;-5.97;100.00
68226;BME280;55045;49.410;11.030;2024-01-10T00:56:06;98991.66;;;-6.12;99.92
68226;BME280;55045;49.410;11.030;2024-01-10T00:59:10;98983.78;;;-6.21;100.00
68226;BME280;55045;49.410;11.030;2024-01-10T01:02:13;98994.31;;;-6.07;100.00
68226;BME280;55045;49.410;11.030;2024-01-10T01:05:19;98993.69;;;-6.27;100.00
68226;BME280;55045;49.410;11.030;2024-01-10T01:08:25;98997.28;;;-6.20;100.00
68226;BME280;55045;49.410;11.030;2024-01-10T01:11:31;99003.59;;;-6.33;100.00
68226;BME280;55045;49.410;11.030;2024-01-10T01:14:35;98993.25;;;-6.41;100.00
68226;BME280;55045;49.410;11.030;2024-01-10T01:17:38;98996.53;;;-5.89;100.00
68226;BME280;55045;49.410;11.030;2024-01-10T01:20:41;99002.06;;;-6.28;100.00
68226;BME280;55045;49.410;11.030;2024-01-10T01:23:46;98996.53;;;-6.43;100.00
68226;BME280;55045;49.410;11.030;2024-01-10T01:26:49;99003.38;;;-6.39;100.00
68226;BME280;55045;49.410;11.030;2024-01-10T01:29:53;98991.91;;;-6.55;100.00
68226;BME280;55045;49.410;11.030;2024-01-10T01:32:58;98999.56;;;-6.53;100.00
68226;BME280;55045;49.410;11.030;2024-01-10T01:36:02;99008.16;;;-6.47;100.00
68226;BME280;55045;49.410;11.030;2024-01-10T01:39:07;99000.56;;;-6.23;100.00
68226;BME280;55045;49.410;11.030;2024-01-10T01:42:10;99002.44;;;-6.16;100.00
68226;BME280;55045;49.410;11.030;2024-01-10T01:45:14;99002.13;;;-5.99;100.00
68226;BME280;55045;49.410;11.030;2024-01-10T01:48:17;99003.66;;;-6.04;100.00
68226;BME280;55045;49.410;11.030;2024-01-10T01:51:22;99010.03;;;-6.16;100.00
68226;BME280;55045;49.410;11.030;2024-01-10T01:54:27;99002.56;;;-6.13;100.00
68226;BME280;55045;49.410;11.030;2024-01-10T01:57:31;99003.44;;;-6.12;100.00
68226;BME280;55045;49.410;11.030;2024-01-10T02:00:34;99010.41;;;-6.30;100.00
68226;BME280;55045;49.410;11.030;2024-01-10T02:03:43;99005.44;;;-6.27;100.00
68226;BME280;55045;49.410;11.030;2024-01-10T02:07:07;99006.22;;;-6.30;100.00
68226;BME280;55045;49.410;11.030;2024-01-10T02:10:12;99016.81;;;-6.40;100.00
68226;BME280;55045;49.410;11.030;2024-01-10T02:13:15;99008.44;;;-6.39;100.00
68226;BME280;55045;49.410;11.030;2024-01-10T02:16:19;99010.28;;;-6.33;100.00
68226;BME280;55045;49.410;11.030;2024-01-10T02:19:23;99007.88;;;-6.30;100.00
68226;BME280;55045;49.410;11.030;2024-01-10T02:22:28;99002.47;;;-6.41;100.00
68226;BME280;55045;49.410;11.030;2024-01-10T02:25:34;99008.53;;;-6.36;100.00
68226;BME280;55045;49.410;11.030;2024-01-10T02:28:37;99002.31;;;-6.46;100.00
68226;BME280;55045;49.410;11.030;2024-01-10T02:31:41;99003.59;;;-6.33;100.00
68226;BME280;55045;49.410;11.030;2024-01-10T02:34:44;99004.00;;;-6.21;100.00
68226;BME280;55045;49.410;11.030;2024-01-10T02:37:47;98994.69;;;-6.47;100.00
68226;BME280;55045;49.410;11.030;2024-01-10T02:40:53;99001.28;;;-6.52;100.00
68226;BME280;55045;49.410;11.030;2024-01-10T02:43:58;98995.59;;;-6.45;100.00
68226;BME280;55045;49.410;11.030;2024-01-10T02:47:01;98980.66;;;-6.64;100.00
68226;BME280;55045;49.410;11.030;2024-01-10T02:50:05;98982.41;;;-6.63;100.00
68226;BME280;55045;49.410;11.030;2024-01-10T02:53:09;98992.28;;;-6.70;100.00
68226;BME280;55045;49.410;11.030;2024-01-10T02:56:14;98992.50;;;-6.63;100.00
68226;BME280;55045;49.410;11.030;2024-01-10T02:59:17;98993.09;;;-6.71;100.00
68226;BME280;55045;49.410;11.030;2024-01-10T03:02:20;98984.22;;;-6.59;100.00
68226;BME280;55045;49.410;11.030;2024-01-10T03:05:26;98992.50;;;-6.63;100.00
68226;BME280;55045;49.410;11.030;2024-01-10T03:08:29;98997.00;;;-6.79;100.00
68226;BME280;55045;49.410;11.030;2024-01-10T03:11:33;98991.44;;;-6.94;100.00
68226;BME280;55045;49.410;11.030;2024-01-10T03:14:38;98999.59;;;-7.01;100.00
68226;BME280;55045;49.410;11.030;2024-01-10T03:17:41;98986.19;;;-7.00;100.00
68226;BME280;55045;49.410;11.030;2024-01-10T03:20:44;98985.19;;;-6.80;100.00
68226;BME280;55045;49.410;11.030;2024-01-10T03:23:48;98987.63;;;-6.83;100.00
68226;BME280;55045;49.410;11.030;2024-01-10T03:26:53;98978.19;;;-7.12;100.00
68226;BME280;55045;49.410;11.030;2024-01-10T03:29:56;98985.41;;;-6.98;100.00
68226;BME280;55045;49.410;11.030;2024-01-10T03:33:00;98991.22;;;-7.00;100.00
68226;BME280;55045;49.410;11.030;2024-01-10T03:36:03;98980.19;;;-7.04;100.00
68226;BME280;55045;49.410;11.030;2024-01-10T03:39:06;98984.41;;;-7.03;100.00
68226;BME280;55045;49.410;11.030;2024-01-10T03:42:11;98975.66;;;-6.88;100.00
68226;BME280;55045;49.410;11.030;2024-01-10T03:45:15;98994.13;;;-7.13;100.00
68226;BME280;55045;49.410;11.030;2024-01-10T03:48:23;98991.28;;;-7.22;100.00
68226;BME280;55045;49.410;11.030;2024-01-10T03:51:26;98987.91;;;-7.23;100.00
68226;BME280;55045;49.410;11.030;2024-01-10T03:54:31;98986.81;;;-7.30;100.00
68226;BME280;55045;49.410;11.030;2024-01-10T03:57:37;98993.13;;;-7.41;100.00
68226;BME280;55045;49.410;11.030;2024-01-10T04:00:40;98990.56;;;-7.42;100.00
68226;BME280;55045;49.410;11.030;2024-01-10T04:03:43;98986.84;;;-7.28;100.00
68226;BME280;55045;49.410;11.030;2024-01-10T04:06:46;98981.94;;;-7.01;100.00
68226;BME280;55045;49.410;11.030;2024-01-10T04:09:50;98988.31;;;-6.87;100.00
68226;BME280;55045;49.410;11.030;2024-01-10T04:12:54;98988.53;;;-7.29;100.00
68226;BME280;55045;49.410;11.030;2024-01-10T04:15:57;98990.03;;;-7.34;100.00
68226;BME280;55045;49.410;11.030;2024-01-10T04:19:01;98993.28;;;-7.14;100.00
68226;BME280;55045;49.410;11.030;2024-01-10T04:22:07;98981.38;;;-7.40;100.00
68226;BME280;55045;49.410;11.030;2024-01-10T04:25:11;98977.31;;;-7.37;100.00
68226;BME280;55045;49.410;11.030;2024-01-10T04:28:15;98982.19;;;-7.17;100.00
68226;BME280;55045;49.410;11.030;2024-01-10T04:35:04;98981.38;;;-7.40;100.00
68226;BME280;55045;49.410;11.030;2024-01-10T04:38:07;98983.41;;;-7.54;100.00
68226;BME280;55045;49.410;11.030;2024-01-10T04:41:11;98974.84;;;-7.58;100.00
68226;BME280;55045;49.410;11.030;2024-01-10T04:44:15;98974.25;;;-7.52;100.00
68226;BME280;55045;49.410;11.030;2024-01-10T04:47:19;98967.59;;;-7.50;100.00
68226;BME280;55045;49.410;11.030;2024-01-10T04:50:24;98972.34;;;-7.35;100.00
68226;BME280;55045;49.410;11.030;2024-01-10T04:53:27;98951.00;;;-7.67;100.00
68226;BME280;55045;49.410;11.030;2024-01-10T04:56:30;98965.94;;;-7.49;100.00
68226;BME280;55045;49.410;11.030;2024-01-10T04:59:33;98976.66;;;-7.55;100.00
68226;BME280;55045;49.410;11.030;2024-01-10T05:02:37;98977.13;;;-7.65;100.00
68226;BME280;55045;49.410;11.030;2024-01-10T05:05:44;98973.19;;;-7.57;100.00
68226;BME280;55045;49.410;11.030;2024-01-10T05:08:48;98980.69;;;-7.59;100.00
68226;BME280;55045;49.410;11.030;2024-01-10T05:11:51;98975.72;;;-7.57;100.00
68226;BME280;55045;49.410;11.030;2024-01-10T05:14:55;98983.81;;;-7.66;100.00
68226;BME280;55045;49.410;11.030;2024-01-10T05:17:58;98979.69;;;-7.64;100.00
68226;BME280;55045;49.410;11.030;2024-01-10T05:21:04;98980.41;;;-7.66;100.00
68226;BME280;55045;49.410;11.030;2024-01-10T05:24:07;98974.69;;;-7.62;100.00
68226;BME280;55045;49.410;11.030;2024-01-10T05:27:10;98974.13;;;-7.55;100.00
68226;BME280;55045;49.410;11.030;2024-01-10T05:30:14;98809.00;;;-8.63;100.00
68226;BME280;55045;49.410;11.030;2024-01-10T05:33:17;98971.84;;;-7.71;100.00
68226;BME280;55045;49.410;11.030;2024-01-10T05:36:23;98981.28;;;-7.66;100.00
68226;BME280;55045;49.410;11.030;2024-01-10T05:39:26;98978.56;;;-7.48;100.00
68226;BME280;55045;49.410;11.030;2024-01-10T05:42:33;98982.16;;;-7.65;100.00
68226;BME280;55045;49.410;11.030;2024-01-10T05:45:36;98978.69;;;-7.67;100.00
68226;BME280;55045;49.410;11.030;2024-01-10T05:48:39;98987.09;;;-7.67;100.00
68226;BME280;55045;49.410;11.030;2024-01-10T05:51:44;98994.56;;;-7.70;100.00
68226;BME280;55045;49.410;11.030;2024-01-10T05:54:48;98992.69;;;-7.75;100.00
68226;BME280;55045;49.410;11.030;2024-01-10T05:57:51;98986.59;;;-7.80;100.00
68226;BME280;55045;49.410;11.030;2024-01-10T06:00:54;98996.69;;;-7.80;100.00
68226;BME280;55045;49.410;11.030;2024-01-10T06:03:58;98988.16;;;-7.84;100.00
68226;BME280;55045;49.410;11.030;2024-01-10T06:07:03;98990.78;;;-7.81;100.00
68226;BME280;55045;49.410;11.030;2024-01-10T06:10:07;98988.97;;;-7.85;100.00
68226;BME280;55045;49.410;11.030;2024-01-10T06:13:10;98990.84;;;-7.79;100.00
68226;BME280;55045;49.410;11.030;2024-01-10T06:16:14;98984.03;;;-7.82;100.00
68226;BME280;55045;49.410;11.030;2024-01-10T06:19:18;98996.78;;;-7.77;100.00
68226;BME280;55045;49.410;11.030;2024-01-10T06:22:23;98992.78;;;-7.95;100.00
68226;BME280;55045;49.410;11.030;2024-01-10T06:25:38;98994.72;;;-7.88;100.00
68226;BME280;55045;49.410;11.030;2024-01-10T06:28:42;98996.69;;;-7.80;100.00
68226;BME280;55045;49.410;11.030;2024-01-10T06:31:45;99002.97;;;-7.92;100.00
68226;BME280;55045;49.410;11.030;2024-01-10T06:34:49;99005.47;;;-7.92;100.00
68226;BME280;55045;49.410;11.030;2024-01-10T06:37:54;99012.03;;;-7.74;100.00
68226;BME280;55045;49.410;11.030;2024-01-10T06:40:57;98970.22;;;-8.14;100.00
68226;BME280;55045;49.410;11.030;2024-01-10T06:44:00;99009.81;;;-7.88;100.00
68226;BME280;55045;49.410;11.030;2024-01-10T06:47:05;99006.84;;;-8.00;100.00
68226;BME280;55045;49.410;11.030;2024-01-10T06:50:09;99009.63;;;-8.15;100.00
68226;BME280;55045;49.410;11.030;2024-01-10T06:53:14;99014.72;;;-8.13;100.00
68226;BME280;55045;49.410;11.030;2024-01-10T06:56:23;99018.19;;;-7.89;100.00
68226;BME280;55045;49.410;11.030;2024-01-10T06:59:35;99015.75;;;-8.08;100.00
68226;BME280;55045;49.410;11.030;2024-01-10T07:03:13;99014.59;;;-8.16;100.00
68226;BME280;55045;49.410;11.030;2024-01-10T07:07:05;99018.25;;;-8.08;100.00
68226;BME280;55045;49.410;11.030;2024-01-10T07:10:12;99029.94;;;-8.10;100.00
68226;BME280;55045;49.410;11.030;2024-01-10T07:13:15;99021.88;;;-8.01;100.00
68226;BME280;55045;49.410;11.030;2024-01-10T07:16:19;99027.78;;;-8.01;100.00
68226;BME280;55045;49.410;11.030;2024-01-10T07:19:22;99030.41;;;-7.98;100.00
68226;BME280;55045;49.410;11.030;2024-01-10T07:22:26;99029.50;;;-8.00;100.00
68226;BME280;55045;49.410;11.030;2024-01-10T07:25:31;99025.25;;;-8.01;100.00
68226;BME280;55045;49.410;11.030;2024-01-10T07:28:35;99030.53;;;-7.95;100.00
68226;BME280;55045;49.410;11.030;2024-01-10T07:31:40;99038.53;;;-8.05;100.00
68226;BME280;55045;49.410;11.030;2024-01-10T07:34:43;99042.72;;;-8.05;100.00
68226;BME280;55045;49.410;11.030;2024-01-10T07:37:48;99023.97;;;-8.12;100.00
68226;BME280;55045;49.410;11.030;2024-01-10T07:40:52;99029.81;;;-8.13;100.00
68226;BME280;55045;49.410;11.030;2024-01-10T07:43:55;99027.41;;;-8.10;100.00
68226;BME280;55045;49.410;11.030;2024-01-10T07:46:59;99037.81;;;-7.80;100.00
68226;BME280;55045;49.410;11.030;2024-01-10T07:50:04;98995.13;;;-8.20;100.00
68226;BME280;55045;49.410;11.030;2024-01-10T07:53:08;99050.75;;;-8.14;100.00
68226;BME280;55045;49.410;11.030;2024-01-10T07:56:14;99048.34;;;-7.90;100.00
68226;BME280;55045;49.410;11.030;2024-01-10T07:59:17;99052.44;;;-7.71;100.00
68226;BME280;55045;49.410;11.030;2024-01-10T08:02:20;99056.13;;;-7.63;100.00
68226;BME280;55045;49.410;11.030;2024-01-10T08:05:24;99063.09;;;-7.56;100.00
68226;BME280;55045;49.410;11.030;2024-01-10T08:08:27;99060.00;;;-7.49;100.00
68226;BME280;55045;49.410;11.030;2024-01-10T08:11:32;99058.56;;;-7.20;100.00
68226;BME280;55045;49.410;11.030;2024-01-10T08:14:36;99057.69;;;-6.25;100.00
68226;BME280;55045;49.410;11.030;2024-01-10T08:17:40;99066.41;;;-6.42;100.00
68226;BME280;55045;49.410;11.030;2024-01-10T08:20:43;99061.84;;;-6.27;100.00
68226;BME280;55045;49.410;11.030;2024-01-10T08:23:47;99060.63;;;-6.38;100.00
68226;BME280;55045;49.410;11.030;2024-01-10T08:26:51;99064.19;;;-6.33;100.00
68226;BME280;55045;49.410;11.030;2024-01-10T08:29:56;99065.41;;;-6.22;100.00
68226;BME280;55045;49.410;11.030;2024-01-10T08:32:59;99053.59;;;-5.69;100.00
68226;BME280;55045;49.410;11.030;2024-01-10T08:36:03;99062.16;;;-5.64;100.00
68226;BME280;55045;49.410;11.030;2024-01-10T08:39:06;99064.47;;;-5.43;100.00
68226;BME280;55045;49.410;11.030;2024-01-10T08:42:11;99071.63;;;-5.30;100.00
68226;BME280;55045;49.410;11.030;2024-01-10T08:45:14;99070.56;;;-5.36;100.00
68226;BME280;55045;49.410;11.030;2024-01-10T08:48:18;99066.94;;;-5.44;100.00
68226;BME280;55045;49.410;11.030;2024-01-10T08:51:21;99066.75;;;-4.94;100.00
68226;BME280;55045;49.410;11.030;2024-01-10T08:54:25;99074.75;;;-5.10;100.00
68226;BME280;55045;49.410;11.030;2024-01-10T08:57:30;99082.13;;;-5.16;100.00
68226;BME280;55045;49.410;11.030;2024-01-10T09:00:33;99080.34;;;-5.20;100.00
68226;BME280;55045;49.410;11.030;2024-01-10T09:03:37;99069.25;;;-4.95;100.00
68226;BME280;55045;49.410;11.030;2024-01-10T09:06:41;99072.56;;;-5.26;100.00
68226;BME280;55045;49.410;11.030;2024-01-10T09:09:44;99074.91;;;-5.04;100.00
68226;BME280;55045;49.410;11.030;2024-01-10T09:12:49;99071.47;;;-4.76;100.00
68226;BME280;55045;49.410;11.030;2024-01-10T09:15:52;99066.19;;;-4.83;100.00
68226;BME280;55045;49.410;11.030;2024-01-10T09:18:56;99079.03;;;-4.77;100.00
68226;BME280;55045;49.410;11.030;2024-01-10T09:22:00;99071.97;;;-4.59;100.00
68226;BME280;55045;49.410;11.030;2024-01-10T09:25:04;99071.69;;;-4.68;100.00
68226;BME280;55045;49.410;11.030;2024-01-10T09:28:09;99078.16;;;-4.48;100.00
68226;BME280;55045;49.410;11.030;2024-01-10T09:31:12;99079.28;;;-4.37;100.00
68226;BME280;55045;49.410;11.030;2024-01-10T09:34:16;99082.06;;;-4.27;100.00
68226;BME280;55045;49.410;11.030;2024-01-10T09:37:19;99080.19;;;-4.35;100.00
68226;BME280;55045;49.410;11.030;2024-01-10T09:40:23;99083.34;;;-4.10;100.00
68226;BME280;55045;49.410;11.030;2024-01-10T09:43:31;99092.44;;;-4.18;100.00
68226;BME280;55045;49.410;11.030;2024-01-10T09:46:38;99088.47;;;-4.09;100.00
68226;BME280;55045;49.410;11.030;2024-01-10T09:49:42;99092.59;;;-4.12;100.00
68226;BME280;55045;49.410;11.030;2024-01-10T09:52:51;99097.06;;;-4.02;100.00
68226;BME280;55045;49.410;11.030;2024-01-10T09:55:54;99099.75;;;-3.96;100.00
68226;BME280;55045;49.410;11.030;2024-01-10T09:59:01;99098.69;;;-3.69;100.00
68226;BME280;55045;49.410;11.030;2024-01-10T10:02:07;99093.63;;;-3.69;100.00
68226;BME280;55045;49.410;11.030;2024-01-10T10:05:14;99090.78;;;-3.83;100.00
68226;BME280;55045;49.410;11.030;2024-01-10T10:08:18;99091.13;;;-3.68;100.00
68226;BME280;55045;49.410;11.030;2024-01-10T10:11:25;99087.28;;;-3.52;100.00
68226;BME280;55045;49.410;11.030;2024-01-10T10:14:30;99062.00;;;-3.49;100.00
68226;BME280;55045;49.410;11.030;2024-01-10T10:17:33;99091.38;;;-3.21;100.00
68226;BME280;55045;49.410;11.030;2024-01-10T10:20:37;99091.44;;;-3.18;100.00
68226;BME280;55045;49.410;11.030;2024-01-10T10:23:41;99089.69;;;-3.21;100.00
68226;BME280;55045;49.410;11.030;2024-01-10T10:26:47;99096.09;;;-2.97;100.00
68226;BME280;55045;49.410;11.030;2024-01-10T10:29:52;99085.00;;;-3.02;99.90
68226;BME280;55045;49.410;11.030;2024-01-10T10:35:04;99080.78;;;-3.02;99.85
68226;BME280;55045;49.410;11.030;2024-01-10T10:38:22;99078.50;;;-2.90;100.00
68226;BME280;55045;49.410;11.030;2024-01-10T10:41:27;99077.97;;;-2.75;100.00
68226;BME280;55045;49.410;11.030;2024-01-10T10:44:35;99084.03;;;-2.67;99.76
68226;BME280;55045;49.410;11.030;2024-01-10T10:47:41;99085.47;;;-2.36;100.00
68226;BME280;55045;49.410;11.030;2024-01-10T10:50:54;99079.13;;;-2.57;98.71
68226;BME280;55045;49.410;11.030;2024-01-10T10:54:02;99084.22;;;-2.12;100.00
68226;BME280;55045;49.410;11.030;2024-01-10T10:57:07;99083.03;;;-2.31;98.49
68226;BME280;55045;49.410;11.030;2024-01-10T11:00:12;99080.31;;;-2.40;98.92
68226;BME280;55045;49.410;11.030;2024-01-10T11:03:18;99079.91;;;-2.15;98.55
68226;BME280;55045;49.410;11.030;2024-01-10T11:06:23;99081.25;;;-2.35;96.34
68226;BME280;55045;49.410;11.030;2024-01-10T11:09:27;99080.66;;;-2.23;97.72
68226;BME280;55045;49.410;11.030;2024-01-10T11:12:43;99071.16;;;-2.32;96.95
68226;BME280;55045;49.410;11.030;2024-01-10T11:16:15;99067.31;;;-2.10;98.30
68226;BME280;55045;49.410;11.030;2024-01-10T11:19:43;99075.00;;;-2.06;96.67
68226;BME280;55045;49.410;11.030;2024-01-10T11:23:12;99068.63;;;-1.84;97.20
68226;BME280;55045;49.410;11.030;2024-01-10T11:26:19;99065.31;;;-1.78;96.61
68226;BME280;55045;49.410;11.030;2024-01-10T11:29:23;99059.16;;;-1.91;95.87
68226;BME280;55045;49.410;11.030;2024-01-10T11:32:27;99052.72;;;-1.70;96.52
68226;BME280;55045;49.410;11.030;2024-01-10T11:35:30;99063.09;;;-1.55;94.98
68226;BME280;55045;49.410;11.030;2024-01-10T11:38:38;99056.44;;;-1.47;96.15
68226;BME280;55045;49.410;11.030;2024-01-10T11:41:47;99052.22;;;-1.47;95.57
68226;BME280;55045;49.410;11.030;2024-01-10T11:48:48;99022.63;;;-1.41;94.62
68226;BME280;55045;49.410;11.030;2024-01-10T11:52:08;99041.63;;;-1.15;95.64
68226;BME280;55045;49.410;11.030;2024-01-10T11:55:53;99034.75;;;-1.22;92.61
68226;BME280;55045;49.410;11.030;2024-01-10T11:59:01;99032.16;;;-1.24;93.76
68226;BME280;55045;49.410;11.030;2024-01-10T12:02:06;99025.47;;;-1.17;92.44
68226;BME280;55045;49.410;11.030;2024-01-10T12:05:13;99034.84;;;-1.14;93.98
68226;BME280;55045;49.410;11.030;2024-01-10T12:08:19;99029.03;;;-1.04;93.11
68226;BME280;55045;49.410;11.030;2024-01-10T12:11:24;99020.59;;;-1.02;92.04
68226;BME280;55045;49.410;11.030;2024-01-10T12:14:29;99020.75;;;-0.88;91.92
68226;BME280;55045;49.410;11.030;2024-01-10T12:17:32;99019.28;;;-0.69;92.39
68226;BME280;55045;49.410;11.030;2024-01-10T12:20:36;99018.53;;;-0.57;92.79
68226;BME280;55045;49.410;11.030;2024-01-10T12:23:40;99017.66;;;-0.61;92.07
68226;BME280;55045;49.410;11.030;2024-01-10T12:26:49;99008.44;;;-0.50;93.49
68226;BME280;55045;49.410;11.030;2024-01-10T12:29:53;99016.94;;;-0.49;90.57
68226;BME280;55045;49.410;11.030;2024-01-10T12:32:58;99008.34;;;-0.59;89.36
68226;BME280;55045;49.410;11.030;2024-01-10T12:36:04;99004.09;;;-0.60;90.20
68226;BME280;55045;49.410;11.030;2024-01-10T12:39:07;99005.91;;;-0.45;93.86
68226;BME280;55045;49.410;11.030;2024-01-10T12:42:12;99002.44;;;-0.52;90.47
68226;BME280;55045;49.410;11.030;2024-01-10T12:45:22;98997.34;;;-0.53;90.02
68226;BME280;55045;49.410;11.030;2024-01-10T12:48:25;99006.94;;;-0.28;89.68
68226;BME280;55045;49.410;11.030;2024-01-10T12:51:29;99012.06;;;-0.26;91.86
68226;BME280;55045;49.410;11.030;2024-01-10T12:54:33;99010.47;;;-0.14;92.55
68226;BME280;55045;49.410;11.030;2024-01-10T12:57:38;99001.09;;;-0.19;90.82
68226;BME280;55045;49.410;11.030;2024-01-10T13:00:41;99005.31;;;-0.20;89.41
68226;BME280;55045;49.410;11.030;2024-01-10T13:03:45;98999.50;;;-0.05;89.45
68226;BME280;55045;49.410;11.030;2024-01-10T13:06:50;99000.41;;;0.05;89.92
68226;BME280;55045;49.410;11.030;2024-01-10T13:09:55;98991.78;;;-0.11;88.63
68226;BME280;55045;49.410;11.030;2024-01-10T13:13:00;98996.22;;;0.13;96.03
68226;BME280;55045;49.410;11.030;2024-01-10T13:16:03;99002.06;;;-0.01;89.69
68226;BME280;55045;49.410;11.030;2024-01-10T13:19:07;99001.16;;;-0.09;90.37
68226;BME280;55045;49.410;11.030;2024-01-10T13:22:11;99002.13;;;0.07;91.68
68226;BME280;55045;49.410;11.030;2024-01-10T13:25:15;98998.66;;;-0.01;89.38
68226;BME280;55045;49.410;11.030;2024-01-10T13:28:20;99001.25;;;0.01;89.07
68226;BME280;55045;49.410;11.030;2024-01-10T13:31:23;98996.16;;;0.05;91.07
68226;BME280;55045;49.410;11.030;2024-01-10T13:34:27;99003.84;;;0.07;91.20
68226;BME280;55045;49.410;11.030;2024-01-10T13:37:31;98999.56;;;0.04;91.41
68226;BME280;55045;49.410;11.030;2024-01-10T13:40:34;98968.72;;;-0.26;89.41
68226;BME280;55045;49.410;11.030;2024-01-10T13:43:39;98992.75;;;0.02;89.71
68226;BME280;55045;49.410;11.030;2024-01-10T13:46:43;99003.06;;;0.18;90.08
68226;BME280;55045;49.410;11.030;2024-01-10T13:49:46;98999.78;;;0.32;94.03
68226;BME280;55045;49.410;11.030;2024-01-10T13:52:50;98995.53;;;0.32;95.06
68226;BME280;55045;49.410;11.030;2024-01-10T13:55:53;98998.88;;;0.23;90.33
68226;BME280;55045;49.410;11.030;2024-01-10T13:58:58;98981.00;;;0.26;91.08
68226;BME280;55045;49.410;11.030;2024-01-10T14:02:02;98991.22;;;0.23;89.41
68226;BME280;55045;49.410;11.030;2024-01-10T14:05:05;98983.63;;;0.37;88.90
68226;BME280;55045;49.410;11.030;2024-01-10T14:08:09;98976.81;;;0.35;93.40
68226;BME280;55045;49.410;11.030;2024-01-10T14:11:13;98985.34;;;0.35;94.65
68226;BME280;55045;49.410;11.030;2024-01-10T14:14:18;98986.19;;;0.36;89.55
68226;BME280;55045;49.410;11.030;2024-01-10T14:17:27;98988.84;;;0.57;91.92
68226;BME280;55045;49.410;11.030;2024-01-10T14:20:31;98986.09;;;0.22;92.17
68226;BME280;55045;49.410;11.030;2024-01-10T14:23:35;98993.91;;;0.43;99.17
68226;BME280;55045;49.410;11.030;2024-01-10T14:26:39;98993.78;;;0.26;91.31
68226;BME280;55045;49.410;11.030;2024-01-10T14:29:43;99004.81;;;0.22;89.87
68226;BME280;55045;49.410;11.030;2024-01-10T14:32:46;99003.19;;;0.32;92.89
68226;BME280;55045;49.410;11.030;2024-01-10T14:35:51;99003.19;;;0.35;90.87
68226;BME280;55045;49.410;11.030;2024-01-10T14:38:54;99001.47;;;0.33;91.30
68226;BME280;55045;49.410;11.030;2024-01-10T14:41:58;99009.22;;;0.43;94.81
68226;BME280;55045;49.410;11.030;2024-01-10T14:45:03;99000.59;;;0.29;94.90
68226;BME280;55045;49.410;11.030;2024-01-10T14:48:07;99011.63;;;0.25;93.05
68226;BME280;55045;49.410;11.030;2024-01-10T14:51:11;99007.50;;;0.45;94.43
68226;BME280;55045;49.410;11.030;2024-01-10T14:54:14;99004.84;;;0.30;93.75
68226;BME280;55045;49.410;11.030;2024-01-10T14:57:17;99018.44;;;0.27;93.57
68226;BME280;55045;49.410;11.030;2024-01-10T15:00:22;99014.25;;;0.33;94.59
68226;BME280;55045;49.410;11.030;2024-01-10T15:03:26;99008.25;;;0.31;96.66
68226;BME280;55045;49.410;11.030;2024-01-10T15:06:29;99015.88;;;0.21;93.31
68226;BME280;55045;49.410;11.030;2024-01-10T15:09:33;99015.81;;;0.20;94.97
68226;BME280;55045;49.410;11.030;2024-01-10T15:12:38;99018.28;;;0.08;94.83
68226;BME280;55045;49.410;11.030;2024-01-10T15:15:43;99010.69;;;0.14;96.38
68226;BME280;55045;49.410;11.030;2024-01-10T15:18:47;99025.16;;;0.13;96.01
68226;BME280;55045;49.410;11.030;2024-01-10T15:21:50;99018.00;;;-0.27;97.55
68226;BME280;55045;49.410;11.030;2024-01-10T15:24:54;99012.91;;;-0.27;97.04
68226;BME280;55045;49.410;11.030;2024-01-10T15:27:57;99024.47;;;-0.60;98.75
68226;BME280;55045;49.410;11.030;2024-01-10T15:31:03;99022.84;;;-0.52;100.00
68226;BME280;55045;49.410;11.030;2024-01-10T15:34:07;99029.50;;;-0.63;100.00
68226;BME280;55045;49.410;11.030;2024-01-10T15:37:10;99030.13;;;-0.84;100.00
68226;BME280;55045;49.410;11.030;2024-01-10T15:40:13;99038.59;;;-0.87;100.00
68226;BME280;55045;49.410;11.030;2024-01-10T15:43:17;99031.66;;;-0.98;100.00
68226;BME280;55045;49.410;11.030;2024-01-10T15:46:21;99026.31;;;-1.18;100.00
68226;BME280;55045;49.410;11.030;2024-01-10T15:49:24;99028.03;;;-1.16;100.00
68226;BME280;55045;49.410;11.030;2024-01-10T15:52:28;99032.34;;;-1.11;100.00
68226;BME280;55045;49.410;11.030;2024-01-10T15:55:32;99043.06;;;-1.34;100.00
68226;BME280;55045;49.410;11.030;2024-01-10T15:58:36;99037.88;;;-1.41;100.00
68226;BME280;55045;49.410;11.030;2024-01-10T16:01:41;99048.56;;;-1.64;100.00
68226;BME280;55045;49.410;11.030;2024-01-10T16:04:44;99052.06;;;-1.56;100.00
68226;BME280;55045;49.410;11.030;2024-01-10T16:07:48;99049.47;;;-1.62;100.00
68226;BME280;55045;49.410;11.030;2024-01-10T16:10:53;99053.38;;;-1.82;100.00